createdAt,value
2022-12-16T00:00:18.264Z,989.07
2022-12-16T00:01:18.243Z,989.08
2022-12-16T00:02:18.351Z,989.06
2022-12-16T00:03:18.300Z,989.03
2022-12-16T00:04:18.220Z,989.03
2022-12-16T00:05:18.210Z,989.01
2022-12-16T00:06:18.197Z,989.00
2022-12-16T00:07:18.170Z,988.99
2022-12-16T00:08:18.165Z,988.97
2022-12-16T00:09:18.155Z,988.96
2022-12-16T00:10:18.159Z,988.96
2022-12-16T00:11:18.285Z,988.95
2022-12-16T00:12:18.121Z,989.02
2022-12-16T00:13:18.137Z,988.99
2022-12-16T00:14:18.098Z,989.00
2022-12-16T00:15:18.084Z,988.97
2022-12-16T00:16:18.163Z,988.95
2022-12-16T00:17:18.069Z,988.93
2022-12-16T00:18:18.085Z,989.00
2022-12-16T00:19:18.041Z,989.00
2022-12-16T00:20:18.042Z,988.95
2022-12-16T00:21:18.025Z,988.96
2022-12-16T00:22:18.006Z,988.93
2022-12-16T00:23:18.018Z,988.96
2022-12-16T00:24:17.995Z,988.97
2022-12-16T00:25:17.972Z,988.96
2022-12-16T00:26:17.963Z,988.97
2022-12-16T00:27:17.969Z,988.97
2022-12-16T00:28:17.965Z,988.98
2022-12-16T00:29:17.954Z,988.94
2022-12-16T00:30:17.945Z,988.94
2022-12-16T00:31:17.969Z,988.92
2022-12-16T00:32:17.898Z,988.97
2022-12-16T00:33:17.901Z,988.94
2022-12-16T00:34:17.883Z,989.02
2022-12-16T00:35:17.878Z,989.00
2022-12-16T00:36:17.878Z,989.06
2022-12-16T00:37:17.863Z,989.04
2022-12-16T00:38:17.842Z,989.02
2022-12-16T00:39:17.821Z,989.02
2022-12-16T00:40:17.818Z,989.04
2022-12-16T00:41:17.795Z,989.01
2022-12-16T00:42:17.790Z,989.00
2022-12-16T00:43:17.786Z,989.02
2022-12-16T00:44:17.771Z,989.03
2022-12-16T00:45:17.761Z,989.00
2022-12-16T00:46:17.812Z,989.05
2022-12-16T00:47:17.742Z,989.00
2022-12-16T00:48:17.730Z,989.05
2022-12-16T00:49:17.717Z,989.00
2022-12-16T00:50:17.715Z,989.02
2022-12-16T00:51:17.699Z,988.99
2022-12-16T00:52:17.757Z,989.03
2022-12-16T00:53:17.687Z,989.00
2022-12-16T00:54:17.660Z,989.00
2022-12-16T00:55:17.652Z,989.03
2022-12-16T00:56:17.631Z,988.99
2022-12-16T00:57:17.650Z,988.97
2022-12-16T00:58:17.608Z,989.00
2022-12-16T00:59:17.611Z,989.02
2022-12-16T01:00:17.596Z,989.01
2022-12-16T01:01:17.760Z,989.06
2022-12-16T01:02:17.743Z,989.04
2022-12-16T01:03:21.508Z,989.07
2022-12-16T01:04:17.580Z,989.06
2022-12-16T01:05:17.548Z,989.08
2022-12-16T01:06:17.561Z,989.05
2022-12-16T01:07:17.547Z,989.00
2022-12-16T01:08:17.521Z,989.04
2022-12-16T01:09:17.510Z,989.00
2022-12-16T01:10:17.480Z,988.98
2022-12-16T01:11:17.504Z,988.98
2022-12-16T01:12:17.461Z,988.98
2022-12-16T01:13:17.464Z,989.04
2022-12-16T01:14:17.433Z,989.04
2022-12-16T01:15:17.442Z,989.07
2022-12-16T01:16:17.510Z,989.09
2022-12-16T01:17:17.433Z,989.11
2022-12-16T01:18:17.408Z,989.10
2022-12-16T01:19:17.412Z,989.13
2022-12-16T01:20:17.381Z,989.09
2022-12-16T01:21:17.372Z,989.16
2022-12-16T01:22:17.356Z,989.18
2022-12-16T01:23:17.348Z,989.16
2022-12-16T01:24:17.350Z,989.17
2022-12-16T01:25:17.340Z,989.16
2022-12-16T01:26:17.312Z,989.16
2022-12-16T01:27:17.316Z,989.20
2022-12-16T01:28:17.302Z,989.18
2022-12-16T01:29:17.270Z,989.21
2022-12-16T01:30:17.359Z,989.24
2022-12-16T01:31:17.315Z,989.23
2022-12-16T01:32:17.279Z,989.23
2022-12-16T01:33:17.252Z,989.22
2022-12-16T01:34:17.250Z,989.23
2022-12-16T01:35:51.036Z,989.22
2022-12-16T01:36:17.222Z,989.22
2022-12-16T01:37:17.208Z,989.25
2022-12-16T01:38:17.179Z,989.26
2022-12-16T01:39:17.176Z,989.23
2022-12-16T01:40:17.151Z,989.26
2022-12-16T01:41:17.150Z,989.23
2022-12-16T01:42:17.167Z,989.22
2022-12-16T01:43:17.142Z,989.22
2022-12-16T01:44:17.112Z,989.19
2022-12-16T01:45:17.098Z,989.22
2022-12-16T01:46:17.183Z,989.24
2022-12-16T01:47:17.076Z,989.24
2022-12-16T01:48:17.081Z,989.22
2022-12-16T01:49:17.061Z,989.25
2022-12-16T01:50:17.044Z,989.24
2022-12-16T01:51:17.040Z,989.28
2022-12-16T01:52:17.021Z,989.27
2022-12-16T01:53:17.034Z,989.29
2022-12-16T01:54:17.027Z,989.26
2022-12-16T01:55:16.993Z,989.29
2022-12-16T01:56:16.979Z,989.31
2022-12-16T01:57:16.963Z,989.29
2022-12-16T01:58:16.977Z,989.30
2022-12-16T01:59:16.938Z,989.30
2022-12-16T02:00:16.958Z,989.29
2022-12-16T02:01:17.047Z,989.33
2022-12-16T02:02:17.087Z,989.34
2022-12-16T02:03:16.960Z,989.31
2022-12-16T02:04:16.896Z,989.29
2022-12-16T02:05:16.868Z,989.34
2022-12-16T02:06:16.866Z,989.30
2022-12-16T02:07:16.858Z,989.35
2022-12-16T02:08:16.866Z,989.32
2022-12-16T02:09:16.843Z,989.34
2022-12-16T02:10:16.816Z,989.37
2022-12-16T02:11:16.814Z,989.32
2022-12-16T02:12:16.835Z,989.36
2022-12-16T02:13:16.799Z,989.35
2022-12-16T02:14:16.771Z,989.32
2022-12-16T02:15:16.765Z,989.31
2022-12-16T02:16:17.411Z,989.36
2022-12-16T02:17:16.824Z,989.33
2022-12-16T02:18:16.735Z,989.33
2022-12-16T02:19:16.734Z,989.30
2022-12-16T02:20:16.697Z,989.32
2022-12-16T02:21:16.718Z,989.33
2022-12-16T02:22:16.688Z,989.31
2022-12-16T02:23:16.671Z,989.31
2022-12-16T02:24:16.671Z,989.28
2022-12-16T02:25:16.661Z,989.29
2022-12-16T02:26:16.641Z,989.31
2022-12-16T02:27:16.643Z,989.26
2022-12-16T02:28:16.618Z,989.33
2022-12-16T02:29:16.610Z,989.32
2022-12-16T02:30:16.597Z,989.34
2022-12-16T02:31:16.633Z,989.32
2022-12-16T02:32:16.582Z,989.35
2022-12-16T02:33:16.561Z,989.35
2022-12-16T02:34:16.546Z,989.34
2022-12-16T02:35:16.537Z,989.36
2022-12-16T02:36:16.520Z,989.33
2022-12-16T02:37:16.515Z,989.34
2022-12-16T02:38:16.510Z,989.35
2022-12-16T02:39:16.503Z,989.37
2022-12-16T02:40:16.471Z,989.33
2022-12-16T02:41:16.495Z,989.34
2022-12-16T02:42:16.458Z,989.37
2022-12-16T02:43:16.438Z,989.36
2022-12-16T02:44:16.431Z,989.37
2022-12-16T02:45:16.419Z,989.37
2022-12-16T02:46:16.457Z,989.43
2022-12-16T02:47:16.409Z,989.41
2022-12-16T02:48:16.415Z,989.42
2022-12-16T02:49:16.383Z,989.47
2022-12-16T02:50:16.353Z,989.44
2022-12-16T02:51:16.379Z,989.44
2022-12-16T02:52:16.342Z,989.43
2022-12-16T02:53:16.327Z,989.44
2022-12-16T02:54:16.341Z,989.46
2022-12-16T02:55:16.336Z,989.44
2022-12-16T02:56:16.292Z,989.39
2022-12-16T02:57:16.279Z,989.44
2022-12-16T02:58:16.309Z,989.45
2022-12-16T02:59:16.260Z,989.49
2022-12-16T03:00:16.252Z,989.46
2022-12-16T03:01:16.373Z,989.42
2022-12-16T03:02:16.510Z,989.46
2022-12-16T03:03:16.292Z,989.44
2022-12-16T03:04:16.223Z,989.51
2022-12-16T03:05:16.198Z,989.50
2022-12-16T03:06:16.183Z,989.52
2022-12-16T03:07:16.203Z,989.52
2022-12-16T03:08:16.170Z,989.51
2022-12-16T03:09:16.157Z,989.50
2022-12-16T03:10:16.142Z,989.47
2022-12-16T03:11:16.123Z,989.52
2022-12-16T03:12:16.142Z,989.55
2022-12-16T03:13:16.103Z,989.54
2022-12-16T03:14:16.102Z,989.55
2022-12-16T03:15:16.102Z,989.53
2022-12-16T03:16:16.099Z,989.55
2022-12-16T03:17:16.062Z,989.56
2022-12-16T03:18:16.047Z,989.57
2022-12-16T03:19:16.033Z,989.58
2022-12-16T03:20:16.024Z,989.58
2022-12-16T03:21:16.026Z,989.53
2022-12-16T03:22:16.011Z,989.54
2022-12-16T03:23:15.993Z,989.56
2022-12-16T03:24:15.977Z,989.55
2022-12-16T03:25:15.965Z,989.54
2022-12-16T03:26:15.953Z,989.57
2022-12-16T03:27:15.957Z,989.58
2022-12-16T03:28:15.942Z,989.54
2022-12-16T03:29:15.923Z,989.53
2022-12-16T03:30:15.911Z,989.53
2022-12-16T03:31:16.013Z,989.52
2022-12-16T03:32:15.878Z,989.58
2022-12-16T03:33:15.886Z,989.55
2022-12-16T03:34:15.872Z,989.57
2022-12-16T03:35:15.856Z,989.61
2022-12-16T03:36:15.850Z,989.59
2022-12-16T03:37:15.840Z,989.58
2022-12-16T03:38:15.812Z,989.59
2022-12-16T03:39:15.812Z,989.59
2022-12-16T03:40:15.794Z,989.62
2022-12-16T03:41:15.779Z,989.58
2022-12-16T03:42:15.778Z,989.60
2022-12-16T03:43:15.776Z,989.58
2022-12-16T03:44:15.746Z,989.59
2022-12-16T03:45:15.735Z,989.55
2022-12-16T03:46:15.797Z,989.57
2022-12-16T03:47:19.977Z,989.57
2022-12-16T03:48:15.725Z,989.57
2022-12-16T03:49:15.692Z,989.59
2022-12-16T03:50:15.688Z,989.58
2022-12-16T03:51:15.683Z,989.56
2022-12-16T03:52:15.653Z,989.58
2022-12-16T03:53:15.650Z,989.59
2022-12-16T03:54:15.672Z,989.64
2022-12-16T03:55:15.618Z,989.62
2022-12-16T03:56:15.620Z,989.64
2022-12-16T03:57:15.935Z,989.64
2022-12-16T03:58:15.589Z,989.66
2022-12-16T03:59:15.587Z,989.65
2022-12-16T04:00:15.595Z,989.64
2022-12-16T04:01:15.693Z,989.64
2022-12-16T04:02:15.738Z,989.65
2022-12-16T04:03:15.779Z,989.69
2022-12-16T04:04:15.544Z,989.68
2022-12-16T04:05:15.518Z,989.71
2022-12-16T04:06:15.524Z,989.74
2022-12-16T04:07:15.520Z,989.67
2022-12-16T04:08:15.488Z,989.69
2022-12-16T04:09:15.484Z,989.70
2022-12-16T04:10:15.465Z,989.70
2022-12-16T04:11:15.459Z,989.69
2022-12-16T04:12:15.445Z,989.67
2022-12-16T04:13:15.413Z,989.68
2022-12-16T04:14:15.402Z,989.73
2022-12-16T04:15:15.432Z,989.70
2022-12-16T04:16:15.450Z,989.70
2022-12-16T04:17:15.394Z,989.67
2022-12-16T04:18:15.359Z,989.68
2022-12-16T04:19:15.348Z,989.66
2022-12-16T04:20:15.352Z,989.70
2022-12-16T04:21:15.334Z,989.69
2022-12-16T04:22:15.335Z,989.71
2022-12-16T04:23:15.303Z,989.71
2022-12-16T04:24:15.302Z,989.74
2022-12-16T04:25:15.287Z,989.72
2022-12-16T04:26:15.266Z,989.77
2022-12-16T04:27:16.102Z,989.77
2022-12-16T04:28:15.270Z,989.80
2022-12-16T04:29:15.233Z,989.79
2022-12-16T04:30:15.232Z,989.79
2022-12-16T04:31:15.263Z,989.78
2022-12-16T04:32:15.200Z,989.78
2022-12-16T04:33:15.216Z,989.81
2022-12-16T04:34:15.198Z,989.86
2022-12-16T04:35:15.177Z,989.81
2022-12-16T04:36:15.161Z,989.90
2022-12-16T04:37:15.144Z,989.89
2022-12-16T04:38:15.174Z,989.93
2022-12-16T04:39:15.144Z,989.95
2022-12-16T04:40:15.117Z,989.95
2022-12-16T04:41:15.103Z,989.99
2022-12-16T04:42:15.110Z,989.94
2022-12-16T04:43:15.079Z,989.93
2022-12-16T04:44:15.072Z,989.96
2022-12-16T04:45:15.069Z,989.96
2022-12-16T04:46:15.090Z,990.01
2022-12-16T04:47:15.044Z,989.98
2022-12-16T04:48:15.030Z,990.00
2022-12-16T04:49:15.015Z,990.05
2022-12-16T04:50:15.004Z,990.07
2022-12-16T04:51:14.998Z,990.11
2022-12-16T04:52:14.976Z,990.10
2022-12-16T04:53:14.966Z,990.08
2022-12-16T04:54:15.013Z,990.14
2022-12-16T04:55:14.946Z,990.14
2022-12-16T04:56:14.928Z,990.17
2022-12-16T04:57:14.934Z,990.16
2022-12-16T04:58:14.900Z,990.15
2022-12-16T04:59:14.909Z,990.16
2022-12-16T05:00:14.889Z,990.19
2022-12-16T05:01:14.972Z,990.17
2022-12-16T05:02:15.036Z,990.19
2022-12-16T05:03:14.903Z,990.16
2022-12-16T05:04:14.837Z,990.18
2022-12-16T05:05:14.833Z,990.18
2022-12-16T05:06:14.833Z,990.20
2022-12-16T05:07:14.815Z,990.19
2022-12-16T05:08:14.815Z,990.19
2022-12-16T05:09:14.797Z,990.23
2022-12-16T05:10:14.789Z,990.21
2022-12-16T05:11:14.767Z,990.27
2022-12-16T05:12:14.809Z,990.25
2022-12-16T05:13:14.738Z,990.25
2022-12-16T05:14:14.738Z,990.25
2022-12-16T05:15:14.760Z,990.26
2022-12-16T05:16:14.748Z,990.27
2022-12-16T05:17:14.700Z,990.23
2022-12-16T05:18:14.692Z,990.27
2022-12-16T05:19:14.800Z,990.29
2022-12-16T05:20:14.657Z,990.28
2022-12-16T05:21:14.654Z,990.29
2022-12-16T05:22:14.647Z,990.33
2022-12-16T05:23:14.643Z,990.28
2022-12-16T05:24:14.637Z,990.35
2022-12-16T05:25:14.596Z,990.35
2022-12-16T05:26:14.587Z,990.35
2022-12-16T05:27:14.585Z,990.35
2022-12-16T05:28:14.588Z,990.36
2022-12-16T05:29:14.560Z,990.34
2022-12-16T05:30:14.560Z,990.38
2022-12-16T05:31:14.582Z,990.33
2022-12-16T05:32:14.518Z,990.36
2022-12-16T05:33:14.524Z,990.36
2022-12-16T05:34:14.495Z,990.35
2022-12-16T05:35:14.508Z,990.35
2022-12-16T05:36:14.481Z,990.37
2022-12-16T05:37:14.467Z,990.33
2022-12-16T05:38:14.472Z,990.35
2022-12-16T05:39:14.445Z,990.37
2022-12-16T05:40:14.428Z,990.37
2022-12-16T05:41:14.427Z,990.37
2022-12-16T05:42:14.406Z,990.39
2022-12-16T05:43:16.896Z,990.41
2022-12-16T05:44:14.412Z,990.45
2022-12-16T05:45:14.381Z,990.52
2022-12-16T05:46:14.569Z,990.52
2022-12-16T05:47:14.431Z,990.54
2022-12-16T05:48:14.348Z,990.52
2022-12-16T05:49:14.346Z,990.54
2022-12-16T05:50:14.318Z,990.55
2022-12-16T05:51:14.315Z,990.57
2022-12-16T05:52:14.305Z,990.57
2022-12-16T05:53:14.278Z,990.58
2022-12-16T05:54:14.270Z,990.55
2022-12-16T05:55:14.266Z,990.54
2022-12-16T05:56:14.262Z,990.54
2022-12-16T05:57:14.252Z,990.60
2022-12-16T05:58:14.221Z,990.57
2022-12-16T05:59:14.214Z,990.62
2022-12-16T06:00:14.207Z,990.67
2022-12-16T06:01:14.195Z,990.67
2022-12-16T06:02:14.367Z,990.77
2022-12-16T06:03:14.372Z,990.80
2022-12-16T06:04:17.444Z,990.85
2022-12-16T06:05:14.162Z,990.89
2022-12-16T06:06:14.137Z,990.87
2022-12-16T06:07:14.137Z,990.88
2022-12-16T06:08:14.121Z,990.85
2022-12-16T06:09:14.105Z,990.89
2022-12-16T06:10:14.118Z,990.89
2022-12-16T06:11:14.081Z,990.93
2022-12-16T06:12:14.074Z,990.91
2022-12-16T06:13:14.076Z,990.89
2022-12-16T06:14:14.046Z,990.89
2022-12-16T06:15:14.031Z,990.93
2022-12-16T06:16:14.050Z,990.94
2022-12-16T06:17:14.019Z,990.94
2022-12-16T06:18:13.997Z,990.98
2022-12-16T06:19:14.006Z,990.97
2022-12-16T06:20:13.992Z,990.96
2022-12-16T06:21:13.976Z,990.93
2022-12-16T06:22:13.954Z,990.93
2022-12-16T06:23:13.963Z,990.96
2022-12-16T06:24:14.093Z,990.94
2022-12-16T06:25:13.924Z,990.95
2022-12-16T06:26:13.909Z,991.03
2022-12-16T06:27:13.903Z,990.97
2022-12-16T06:28:13.898Z,991.01
2022-12-16T06:29:13.935Z,991.04
2022-12-16T06:30:13.868Z,991.04
2022-12-16T06:31:13.948Z,991.05
2022-12-16T06:32:13.850Z,991.10
2022-12-16T06:33:13.833Z,991.09
2022-12-16T06:34:13.821Z,991.11
2022-12-16T06:35:13.817Z,991.16
2022-12-16T06:36:13.840Z,991.14
2022-12-16T06:37:13.796Z,991.14
2022-12-16T06:38:13.800Z,991.12
2022-12-16T06:39:13.762Z,991.13
2022-12-16T06:40:13.749Z,991.16
2022-12-16T06:41:13.751Z,991.17
2022-12-16T06:42:13.730Z,991.14
2022-12-16T06:43:13.718Z,991.20
2022-12-16T06:44:13.725Z,991.22
2022-12-16T06:45:13.695Z,991.24
2022-12-16T06:46:13.800Z,991.23
2022-12-16T06:47:13.682Z,991.26
2022-12-16T06:48:13.657Z,991.22
2022-12-16T06:49:13.652Z,991.24
2022-12-16T06:50:13.655Z,991.30
2022-12-16T06:51:13.639Z,991.34
2022-12-16T06:52:13.611Z,991.35
2022-12-16T06:53:13.602Z,991.43
2022-12-16T06:54:13.586Z,991.40
2022-12-16T06:55:13.580Z,991.42
2022-12-16T06:56:13.632Z,991.45
2022-12-16T06:57:13.607Z,991.49
2022-12-16T06:58:13.568Z,991.45
2022-12-16T06:59:13.549Z,991.47
2022-12-16T07:00:13.539Z,991.45
2022-12-16T07:01:13.576Z,991.47
2022-12-16T07:02:13.633Z,991.52
2022-12-16T07:03:13.570Z,991.58
2022-12-16T07:04:13.476Z,991.59
2022-12-16T07:05:13.484Z,991.65
2022-12-16T07:06:13.475Z,991.60
2022-12-16T07:07:13.489Z,991.58
2022-12-16T07:08:13.431Z,991.65
2022-12-16T07:09:13.422Z,991.70
2022-12-16T07:10:13.431Z,991.65
2022-12-16T07:11:17.140Z,991.66
2022-12-16T07:12:13.387Z,991.71
2022-12-16T07:13:13.381Z,991.72
2022-12-16T07:14:13.374Z,991.77
2022-12-16T07:15:13.353Z,991.76
2022-12-16T07:16:13.444Z,991.74
2022-12-16T07:17:17.115Z,991.76
2022-12-16T07:18:13.320Z,991.82
2022-12-16T07:19:13.314Z,991.83
2022-12-16T07:20:13.302Z,991.82
2022-12-16T07:21:13.284Z,991.89
2022-12-16T07:22:13.282Z,991.87
2022-12-16T07:23:19.294Z,991.87
2022-12-16T07:24:13.264Z,991.92
2022-12-16T07:25:13.244Z,991.93
2022-12-16T07:26:13.232Z,991.98
2022-12-16T07:27:13.242Z,992.00
2022-12-16T07:28:15.705Z,992.00
2022-12-16T07:29:13.198Z,992.02
2022-12-16T07:30:13.182Z,992.07
2022-12-16T07:31:13.262Z,992.06
2022-12-16T07:32:13.273Z,992.10
2022-12-16T07:33:13.164Z,992.12
2022-12-16T07:34:13.136Z,992.09
2022-12-16T07:35:13.134Z,992.10
2022-12-16T07:36:13.120Z,992.14
2022-12-16T07:37:13.101Z,992.14
2022-12-16T07:38:13.146Z,992.13
2022-12-16T07:39:13.342Z,992.18
2022-12-16T07:40:13.086Z,992.20
2022-12-16T07:41:13.067Z,992.23
2022-12-16T07:42:13.058Z,992.26
2022-12-16T07:43:13.035Z,992.27
2022-12-16T07:44:13.048Z,992.35
2022-12-16T07:45:13.015Z,992.32
2022-12-16T07:46:13.039Z,992.32
2022-12-16T07:47:12.989Z,992.28
2022-12-16T07:48:12.986Z,992.36
2022-12-16T07:49:12.976Z,992.36
2022-12-16T07:50:12.959Z,992.35
2022-12-16T07:51:12.947Z,992.34
2022-12-16T07:52:12.953Z,992.37
2022-12-16T07:53:12.930Z,992.39
2022-12-16T07:54:12.945Z,992.40
2022-12-16T07:55:12.922Z,992.41
2022-12-16T07:56:12.905Z,992.42
2022-12-16T07:57:12.875Z,992.41
2022-12-16T07:58:12.873Z,992.44
2022-12-16T07:59:12.860Z,992.43
2022-12-16T08:00:12.863Z,992.46
2022-12-16T08:01:12.888Z,992.42
2022-12-16T08:02:13.037Z,992.45
2022-12-16T08:03:12.889Z,992.45
2022-12-16T08:04:12.804Z,992.45
2022-12-16T08:05:12.813Z,992.49
2022-12-16T08:06:12.771Z,992.50
2022-12-16T08:07:12.795Z,992.54
2022-12-16T08:08:12.754Z,992.51
2022-12-16T08:09:12.746Z,992.56
2022-12-16T08:10:12.736Z,992.55
2022-12-16T08:11:12.734Z,992.55
2022-12-16T08:12:12.965Z,992.57
2022-12-16T08:13:12.694Z,992.57
2022-12-16T08:14:12.717Z,992.56
2022-12-16T08:15:12.685Z,992.55
2022-12-16T08:16:12.820Z,992.63
2022-12-16T08:17:13.018Z,992.64
2022-12-16T08:18:12.659Z,992.65
2022-12-16T08:19:12.628Z,992.67
2022-12-16T08:20:12.626Z,992.69
2022-12-16T08:21:12.603Z,992.71
2022-12-16T08:22:12.763Z,992.74
2022-12-16T08:23:12.593Z,992.74
2022-12-16T08:24:12.580Z,992.73
2022-12-16T08:25:12.564Z,992.71
2022-12-16T08:26:12.550Z,992.71
2022-12-16T08:27:12.802Z,992.70
2022-12-16T08:28:12.523Z,992.71
2022-12-16T08:29:42.049Z,992.75
2022-12-16T08:30:12.509Z,992.75
2022-12-16T08:31:12.565Z,992.78
2022-12-16T08:32:12.764Z,992.83
2022-12-16T08:33:18.859Z,992.75
2022-12-16T08:34:12.459Z,992.77
2022-12-16T08:35:12.456Z,992.82
2022-12-16T08:36:12.434Z,992.85
2022-12-16T08:37:12.689Z,992.87
2022-12-16T08:38:14.162Z,992.89
2022-12-16T08:39:12.441Z,992.85
2022-12-16T08:40:34.460Z,992.88
2022-12-16T08:41:12.394Z,992.91
2022-12-16T08:42:12.393Z,992.94
2022-12-16T08:43:12.923Z,992.93
2022-12-16T08:44:12.361Z,992.95
2022-12-16T08:45:12.338Z,992.93
2022-12-16T08:46:12.472Z,992.94
2022-12-16T08:47:12.315Z,993.03
2022-12-16T08:48:12.307Z,993.04
2022-12-16T08:49:12.342Z,993.06
2022-12-16T08:50:12.275Z,993.00
2022-12-16T08:51:12.277Z,992.97
2022-12-16T08:52:12.257Z,993.05
2022-12-16T08:53:12.243Z,993.06
2022-12-16T08:54:12.238Z,993.07
2022-12-16T08:55:12.248Z,993.09
2022-12-16T08:56:12.209Z,993.04
2022-12-16T08:57:12.212Z,993.10
2022-12-16T08:58:12.194Z,993.09
2022-12-16T08:59:12.178Z,993.13
2022-12-16T09:00:12.165Z,993.13
2022-12-16T09:01:12.204Z,993.13
2022-12-16T09:02:12.370Z,993.13
2022-12-16T09:03:12.503Z,993.12
2022-12-16T09:04:12.266Z,993.16
2022-12-16T09:05:12.108Z,993.19
2022-12-16T09:06:12.123Z,993.16
2022-12-16T09:07:12.097Z,993.24
2022-12-16T09:08:12.072Z,993.19
2022-12-16T09:09:12.073Z,993.25
2022-12-16T09:10:12.062Z,993.24
2022-12-16T09:11:12.046Z,993.26
2022-12-16T09:12:12.035Z,993.23
2022-12-16T09:13:12.030Z,993.22
2022-12-16T09:14:12.001Z,993.23
2022-12-16T09:15:11.994Z,993.19
2022-12-16T09:16:17.597Z,993.20
2022-12-16T09:17:11.996Z,993.21
2022-12-16T09:18:11.981Z,993.18
2022-12-16T09:19:12.036Z,993.24
2022-12-16T09:20:11.960Z,993.25
2022-12-16T09:21:11.927Z,993.25
2022-12-16T09:22:11.920Z,993.26
2022-12-16T09:23:11.928Z,993.26
2022-12-16T09:24:11.902Z,993.30
2022-12-16T09:25:11.895Z,993.29
2022-12-16T09:26:11.930Z,993.29
2022-12-16T09:27:11.885Z,993.34
2022-12-16T09:28:11.977Z,993.31
2022-12-16T09:29:11.854Z,993.35
2022-12-16T09:30:11.842Z,993.34
2022-12-16T09:31:11.885Z,993.37
2022-12-16T09:32:11.805Z,993.40
2022-12-16T09:33:11.799Z,993.40
2022-12-16T09:34:11.849Z,993.42
2022-12-16T09:35:13.784Z,993.42
2022-12-16T09:36:11.802Z,993.43
2022-12-16T09:37:11.756Z,993.42
2022-12-16T09:38:11.817Z,993.47
2022-12-16T09:39:11.734Z,993.46
2022-12-16T09:40:11.733Z,993.50
2022-12-16T09:41:11.705Z,993.52
2022-12-16T09:42:11.752Z,993.49
2022-12-16T09:43:11.693Z,993.49
2022-12-16T09:44:11.670Z,993.52
2022-12-16T09:45:11.671Z,993.50
2022-12-16T09:46:11.750Z,993.55
2022-12-16T09:47:11.632Z,993.53
2022-12-16T09:48:11.689Z,993.58
2022-12-16T09:49:11.633Z,993.59
2022-12-16T09:50:11.624Z,993.57
2022-12-16T09:51:11.590Z,993.61
2022-12-16T09:52:18.029Z,993.58
2022-12-16T09:53:11.576Z,993.57
2022-12-16T09:54:11.555Z,993.54
2022-12-16T09:55:11.555Z,993.58
2022-12-16T09:56:11.537Z,993.55
2022-12-16T09:57:11.530Z,993.61
2022-12-16T09:58:11.646Z,993.52
2022-12-16T09:59:11.499Z,993.54
2022-12-16T10:00:11.519Z,993.51
2022-12-16T10:01:11.516Z,993.58
2022-12-16T10:02:11.690Z,993.57
2022-12-16T10:03:11.795Z,993.60
2022-12-16T10:04:11.630Z,993.60
2022-12-16T10:05:11.429Z,993.62
2022-12-16T10:06:11.429Z,993.66
2022-12-16T10:07:11.450Z,993.66
2022-12-16T10:08:17.174Z,993.66
2022-12-16T10:09:11.444Z,993.65
2022-12-16T10:10:11.388Z,993.62
2022-12-16T10:11:11.368Z,993.63
2022-12-16T10:12:11.360Z,993.65
2022-12-16T10:13:11.379Z,993.61
2022-12-16T10:14:15.954Z,993.68
2022-12-16T10:15:11.335Z,993.68
2022-12-16T10:16:11.372Z,993.69
2022-12-16T10:17:11.306Z,993.72
2022-12-16T10:18:11.413Z,993.70
2022-12-16T10:19:11.317Z,993.66
2022-12-16T10:20:11.282Z,993.73
2022-12-16T10:21:11.257Z,993.72
2022-12-16T10:22:11.243Z,993.73
2022-12-16T10:23:11.229Z,993.81
2022-12-16T10:24:11.223Z,993.78
2022-12-16T10:25:11.243Z,993.82
2022-12-16T10:26:11.196Z,993.86
2022-12-16T10:27:11.207Z,993.73
2022-12-16T10:28:11.185Z,993.71
2022-12-16T10:29:11.204Z,993.75
2022-12-16T10:30:11.151Z,993.79
2022-12-16T10:31:11.329Z,993.87
2022-12-16T10:32:11.129Z,993.85
2022-12-16T10:33:11.153Z,993.91
2022-12-16T10:34:11.105Z,993.88
2022-12-16T10:35:11.153Z,993.88
2022-12-16T10:36:11.094Z,993.93
2022-12-16T10:37:14.183Z,993.87
2022-12-16T10:38:11.079Z,993.90
2022-12-16T10:39:11.056Z,993.94
2022-12-16T10:40:11.063Z,993.90
2022-12-16T10:41:11.048Z,993.91
2022-12-16T10:42:11.019Z,993.88
2022-12-16T10:43:11.019Z,993.91
2022-12-16T10:44:10.995Z,993.91
2022-12-16T10:45:10.985Z,993.85
2022-12-16T10:46:11.087Z,993.86
2022-12-16T10:47:10.990Z,993.94
2022-12-16T10:48:10.955Z,993.86
2022-12-16T10:49:11.033Z,993.89
2022-12-16T10:50:10.989Z,993.88
2022-12-16T10:51:10.923Z,993.85
2022-12-16T10:52:10.899Z,993.92
2022-12-16T10:53:10.904Z,993.87
2022-12-16T10:54:10.969Z,993.92
2022-12-16T10:55:10.902Z,993.95
2022-12-16T10:56:10.910Z,993.93
2022-12-16T10:57:10.848Z,993.92
2022-12-16T10:58:10.851Z,993.90
2022-12-16T10:59:10.832Z,993.93
2022-12-16T11:00:10.841Z,993.88
2022-12-16T11:01:10.833Z,993.90
2022-12-16T11:02:10.968Z,993.87
2022-12-16T11:03:11.102Z,993.86
2022-12-16T11:04:10.811Z,993.85
2022-12-16T11:05:10.787Z,993.84
2022-12-16T11:06:10.750Z,993.85
2022-12-16T11:07:10.740Z,993.83
2022-12-16T11:08:10.735Z,993.83
2022-12-16T11:09:10.735Z,993.83
2022-12-16T11:10:10.712Z,993.87
2022-12-16T11:11:10.711Z,993.84
2022-12-16T11:12:10.690Z,993.88
2022-12-16T11:13:10.680Z,993.87
2022-12-16T11:14:10.676Z,993.86
2022-12-16T11:15:28.639Z,993.90
2022-12-16T11:16:10.707Z,993.90
2022-12-16T11:17:10.638Z,993.83
2022-12-16T11:18:10.631Z,993.84
2022-12-16T11:19:10.641Z,993.88
2022-12-16T11:20:10.606Z,993.89
2022-12-16T11:21:13.294Z,993.88
2022-12-16T11:22:10.581Z,993.84
2022-12-16T11:23:10.568Z,993.87
2022-12-16T11:24:10.552Z,993.88
2022-12-16T11:25:10.551Z,993.89
2022-12-16T11:26:10.533Z,993.89
2022-12-16T11:27:10.544Z,993.90
2022-12-16T11:28:10.513Z,993.91
2022-12-16T11:29:10.500Z,993.91
2022-12-16T11:30:10.490Z,993.91
2022-12-16T11:31:10.522Z,993.88
2022-12-16T11:32:10.512Z,993.91
2022-12-16T11:33:10.475Z,993.90
2022-12-16T11:34:10.471Z,993.87
2022-12-16T11:35:10.474Z,993.92
2022-12-16T11:36:10.432Z,993.92
2022-12-16T11:37:11.355Z,993.93
2022-12-16T11:38:10.426Z,993.93
2022-12-16T11:39:10.396Z,993.94
2022-12-16T11:40:10.391Z,993.92
2022-12-16T11:41:10.403Z,993.98
2022-12-16T11:42:10.361Z,994.00
2022-12-16T11:43:15.477Z,993.99
2022-12-16T11:44:10.369Z,993.97
2022-12-16T11:45:10.339Z,993.98
2022-12-16T11:46:10.389Z,993.99
2022-12-16T11:47:10.334Z,993.98
2022-12-16T11:48:10.323Z,993.96
2022-12-16T11:49:10.285Z,993.93
2022-12-16T11:50:10.269Z,993.95
2022-12-16T11:51:10.269Z,993.98
2022-12-16T11:52:35.410Z,993.99
2022-12-16T11:53:10.248Z,993.99
2022-12-16T11:54:10.239Z,994.00
2022-12-16T11:55:10.290Z,993.98
2022-12-16T11:56:15.650Z,993.97
2022-12-16T11:57:10.211Z,993.98
2022-12-16T11:58:10.200Z,994.00
2022-12-16T11:59:10.185Z,994.00
2022-12-16T12:00:10.155Z,994.01
2022-12-16T12:01:10.160Z,994.00
2022-12-16T12:02:10.284Z,993.98
2022-12-16T12:03:10.270Z,993.97
2022-12-16T12:04:10.195Z,993.93
2022-12-16T12:05:10.136Z,993.97
2022-12-16T12:06:10.089Z,993.91
2022-12-16T12:07:10.090Z,993.96
2022-12-16T12:08:10.069Z,993.96
2022-12-16T12:09:10.065Z,993.99
2022-12-16T12:10:10.086Z,994.02
2022-12-16T12:11:10.070Z,994.03
2022-12-16T12:12:10.039Z,994.01
2022-12-16T12:13:10.024Z,994.03
2022-12-16T12:14:09.999Z,993.98
2022-12-16T12:15:09.991Z,994.02
2022-12-16T12:16:10.044Z,994.02
2022-12-16T12:17:09.995Z,993.98
2022-12-16T12:18:10.020Z,993.94
2022-12-16T12:19:09.950Z,994.01
2022-12-16T12:20:09.947Z,994.01
2022-12-16T12:21:09.929Z,993.98
2022-12-16T12:22:09.927Z,993.97
2022-12-16T12:23:09.914Z,993.99
2022-12-16T12:24:09.923Z,993.99
2022-12-16T12:25:09.874Z,994.02
2022-12-16T12:26:09.885Z,994.02
2022-12-16T12:27:09.851Z,994.04
2022-12-16T12:28:09.833Z,994.02